Biotrans — JWPN — position and weather

sailwx.info

Track history (hours):
 
Tides and Currents Weather Stations Pressure Air Temp Water Temp Dewpoint Dewpoint Depression Visibility Wind Speed Wind Dir Waves Ship Positions

Biotrans

Last reported at 2017-Oct-20 10:30 UTC. Time now 2017-Oct-20 10:41 UTC.
Position N 61°06' E 004°43'.

Length 55 m; draft 5.5 m.

Type: Cargo ship. MMSI: 259260000.

Date/timePositionNaut miles runAvg speedWind from/ knotsBaromVisibWave heightAir tempDewpointWater temp
2017-Oct-20 10:30N 61°06' E 004°43'0 0.1
2017-Oct-20 10:00N 61°06' E 004°43'0 0.0
2017-Oct-20 09:30N 61°06' E 004°43'0 0.0
2017-Oct-20 09:00N 61°06' E 004°43'0 0.1
2017-Oct-20 08:30N 61°06' E 004°43'0 0.0
2017-Oct-20 08:00N 61°06' E 004°43'0 0.0
2017-Oct-20 07:30N 61°06' E 004°43'0 0.0
2017-Oct-20 07:00N 61°06' E 004°43'0 0.2
2017-Oct-20 06:30N 61°06' E 004°43'0 0.0
2017-Oct-20 06:00N 61°06' E 004°43'0 0.0
2017-Oct-20 05:30N 61°06' E 004°43'0 0.0
2017-Oct-20 05:00N 61°06' E 004°43'0 0.0
2017-Oct-20 04:30N 61°06' E 004°43'0 0.0
2017-Oct-20 04:00N 61°06' E 004°43'0 0.0
2017-Oct-20 03:30N 61°06' E 004°43'0 0.0
2017-Oct-20 02:59N 61°06' E 004°43'0 0.0
2017-Oct-20 02:30N 61°06' E 004°43'0 0.0
2017-Oct-20 02:00N 61°06' E 004°43'0 0.0
2017-Oct-20 01:30N 61°06' E 004°43'0 0.0
2017-Oct-20 01:00N 61°06' E 004°43'0 0.0
2017-Oct-20 00:30N 61°06' E 004°43'0 0.0
2017-Oct-20 00:00N 61°06' E 004°43'0 0.0
2017-Oct-19 23:29N 61°06' E 004°43'0 0.0
2017-Oct-19 23:00N 61°06' E 004°43'0 0.0
2017-Oct-19 22:30N 61°06' E 004°43'3 6.3
2017-Oct-19 22:00N 61°03' E 004°44'4 6.9
2017-Oct-19 21:30N 61°01' E 004°50'5 9.9
2017-Oct-19 21:00N 61°04' E 004°59'2 4.8
2017-Oct-19 20:30N 61°06' E 005°01'1 2.5
2017-Oct-19 20:00N 61°08' E 005°02'3 6.1
2017-Oct-19 19:30N 61°10' E 005°00'0 0.0
2017-Oct-19 19:00N 61°10' E 005°00'2 4.8
2017-Oct-19 18:30N 61°13' E 004°58'4 8.5
2017-Oct-19 18:00N 61°17' E 004°55'5 9.6
2017-Oct-19 17:29N 61°19' E 005°04'5 9.4
2017-Oct-19 17:00N 61°21' E 005°13'2 4.6
2017-Oct-19 16:30N 61°21' E 005°17'3 5.8
2017-Oct-19 16:00N 61°21' E 005°11'4 7.7
2017-Oct-19 15:30N 61°20' E 005°04'4 8.9
2017-Oct-19 15:00N 61°24' E 004°60'4 8.6
2017-Oct-19 14:30N 61°28' E 004°59'4 8.8
2017-Oct-19 14:00N 61°32' E 004°59'1 1.3
2017-Oct-19 13:30N 61°33' E 004°58'2 4.5
2017-Oct-19 13:00N 61°35' E 004°57'3 5.9
2017-Oct-19 12:29N 61°34' E 004°51'0 0.0
2017-Oct-19 12:00N 61°34' E 004°51'3 5.2
2017-Oct-19 11:30N 61°35' E 004°56'3 6.3
2017-Oct-19 11:00N 61°38' E 004°52'0 0.6
2017-Oct-19 10:30N 61°38' E 004°52'4 8.0
2017-Oct-19 10:00N 61°41' E 004°56'5 9.1
2017-Oct-19 09:30N 61°45' E 005°01'2 3.1
2017-Oct-19 08:59N 61°45' E 005°04'1 2.8
2017-Oct-19 08:30N 61°47' E 005°06'5 9.3
2017-Oct-19 08:00N 61°50' E 005°13'3 5.9
2017-Oct-19 07:30N 61°52' E 005°13'3 5.7
2017-Oct-19 07:00N 61°54' E 005°17'0 0.8
2017-Oct-19 06:30N 61°55' E 005°18'2 3.8
2017-Oct-19 06:00N 61°54' E 005°14'3 7.0
2017-Oct-19 05:30N 61°55' E 005°07'2 3.4
2017-Oct-19 05:00N 61°56' E 005°08'0 0.0
2017-Oct-19 04:30N 61°56' E 005°08'0 0.0
2017-Oct-19 04:00N 61°57' E 005°08'0 0.0
2017-Oct-19 03:30N 61°57' E 005°08'0 0.0
2017-Oct-19 03:00N 61°57' E 005°08'0 0.0
2017-Oct-19 02:30N 61°56' E 005°08'0 0.0
2017-Oct-19 02:00N 61°57' E 005°08'0 0.0
2017-Oct-19 01:30N 61°56' E 005°08'0 0.0
2017-Oct-19 01:00N 61°56' E 005°08'2 4.8
2017-Oct-19 00:30N 61°59' E 005°09'5 9.1
2017-Oct-19 00:00N 62°03' E 005°08'5 9.5
2017-Oct-18 23:29N 62°08' E 005°05'4 9.0
2017-Oct-18 23:00N 62°12' E 005°07'4 8.7
2017-Oct-18 22:30N 62°12' E 005°16'5 9.4
2017-Oct-18 22:00N 62°08' E 005°22'2 4.3
2017-Oct-18 21:30N 62°07' E 005°26'0 0.0
2017-Oct-18 21:00N 62°07' E 005°26'1 2.2
2017-Oct-18 20:30N 62°07' E 005°23'4 7.6
2017-Oct-18 20:00N 62°11' E 005°26'4 7.6
2017-Oct-18 19:30N 62°11' E 005°34'5 9.1
2017-Oct-18 19:00N 62°12' E 005°44'5 9.3
2017-Oct-18 18:30N 62°12' E 005°54'1 1.1
2017-Oct-18 18:00N 62°12' E 005°54'0 0.0
2017-Oct-18 17:30N 62°12' E 005°54'0 0.0
2017-Oct-18 16:59N 62°12' E 005°54'2 3.5
2017-Oct-18 16:30N 62°13' E 005°55'5 9.6
2017-Oct-18 16:00N 62°17' E 006°01'5 9.5
2017-Oct-18 15:30N 62°20' E 006°09'510.0
2017-Oct-18 15:00N 62°23' E 006°19'1110.7
2017-Oct-18 14:00N 62°27' E 006°40'510.2
2017-Oct-18 13:30N 62°26' E 006°51'5 9.4
2017-Oct-18 13:00N 62°22' E 006°56'5 9.8
2017-Oct-18 12:30N 62°18' E 007°01'3 5.6
2017-Oct-18 12:00N 62°18' E 007°07'1 2.4
2017-Oct-18 11:30N 62°18' E 007°05'3 5.1
2017-Oct-18 11:00N 62°17' E 006°59'2 4.4
2017-Oct-18 10:30N 62°19' E 006°58'2 4.5
2017-Oct-18 10:00N 62°21' E 006°55'2 4.7
2017-Oct-18 09:30N 62°23' E 006°55'4 8.5
2017-Oct-18 09:00N 62°26' E 006°49'5 9.2
2017-Oct-18 08:30N 62°27' E 006°39'5 9.8
2017-Oct-18 08:00N 62°25' E 006°29'5 9.8
2017-Oct-18 07:30N 62°24' E 006°19'510.0
2017-Oct-18 07:00N 62°24' E 006°08'4 7.7
2017-Oct-18 06:30N 62°27' E 006°04'4 9.1
2017-Oct-18 06:00N 62°31' E 006°09'5 9.3
2017-Oct-18 05:30N 62°35' E 006°14'5 9.5
2017-Oct-18 05:00N 62°38' E 006°22'5 9.5
2017-Oct-18 04:30N 62°42' E 006°28'5 9.9
2017-Oct-18 04:00N 62°46' E 006°34'5 9.7
2017-Oct-18 03:30N 62°50' E 006°39'5 9.9
2017-Oct-18 03:00N 62°54' E 006°45'5 9.5
2017-Oct-18 02:30N 62°58' E 006°52'5 9.4
2017-Oct-18 02:00N 63°00' E 007°01'5 9.6
2017-Oct-18 01:30N 63°02' E 007°11'5 9.9
2017-Oct-18 01:00N 63°04' E 007°21'510.3
2017-Oct-18 00:30N 63°06' E 007°31'510.2
2017-Oct-18 00:00N 63°09' E 007°40'510.0
2017-Oct-17 23:30N 63°11' E 007°50'510.0
2017-Oct-17 23:00N 63°14' E 007°59'5 9.8
2017-Oct-17 22:30N 63°17' E 008°09'5 9.8
2017-Oct-17 22:00N 63°19' E 008°17'5 9.8
2017-Oct-17 21:30N 63°22' E 008°26'5 9.8
2017-Oct-17 21:00N 63°24' E 008°36'5 9.6
2017-Oct-17 20:30N 63°26' E 008°46'5 9.5
2017-Oct-17 20:00N 63°28' E 008°56'5 9.3
2017-Oct-17 19:30N 63°30' E 009°05'4 8.7
2017-Oct-17 19:00N 63°32' E 009°14'5 9.1
2017-Oct-17 18:30N 63°34' E 009°23'4 9.0
2017-Oct-17 18:00N 63°38' E 009°29'5 9.9
2017-Oct-17 17:30N 63°43' E 009°31'5 9.5
2017-Oct-17 17:00N 63°45' E 009°41'2 4.5
2017-Oct-17 16:30N 63°46' E 009°46'0 0.0
2017-Oct-17 15:59N 63°46' E 009°46'0 0.0
2017-Oct-17 15:30N 63°46' E 009°46'4 7.3
2017-Oct-17 15:00N 63°45' E 009°38'3 6.3
2017-Oct-17 14:30N 63°47' E 009°34'5 9.0
2017-Oct-17 14:00N 63°51' E 009°39'4 8.8
2017-Oct-17 13:30N 63°53' E 009°48'2 4.0
2017-Oct-17 13:00N 63°53' E 009°53'0 0.5
2017-Oct-17 12:30N 63°53' E 009°52'0 0.0
2017-Oct-17 12:00N 63°53' E 009°52'0 0.0
2017-Oct-17 11:30N 63°53' E 009°52'0 0.0
2017-Oct-17 10:59N 63°53' E 009°52'0 0.0
2017-Oct-17 10:30N 63°53' E 009°52'0 0.0
2017-Oct-17 10:00N 63°53' E 009°52'0 0.0
2017-Oct-17 09:30N 63°53' E 009°52'0 0.0
2017-Oct-17 09:00N 63°53' E 009°52'0 0.0
2017-Oct-17 08:30N 63°53' E 009°52'0 0.0
2017-Oct-17 08:00N 63°53' E 009°52'0 0.0
2017-Oct-17 07:29N 63°53' E 009°52'0 0.0
2017-Oct-17 07:00N 63°53' E 009°52'0 0.0
2017-Oct-17 06:30N 63°53' E 009°52'0 0.0
2017-Oct-17 06:00N 63°53' E 009°52'0 0.0
2017-Oct-17 05:30N 63°53' E 009°52'0 0.0
2017-Oct-17 05:00N 63°53' E 009°52'0 0.0
2017-Oct-17 04:30N 63°53' E 009°52'0 0.0
2017-Oct-17 04:00N 63°53' E 009°52'0 0.0
2017-Oct-17 03:30N 63°53' E 009°52'0 0.0
2017-Oct-17 02:59N 63°53' E 009°52'0 0.0
2017-Oct-17 02:29N 63°53' E 009°52'0 0.0
2017-Oct-17 02:00N 63°53' E 009°52'0 0.0
2017-Oct-17 01:30N 63°53' E 009°52'0 0.0
2017-Oct-17 01:00N 63°53' E 009°52'0 0.0
2017-Oct-17 00:30N 63°53' E 009°52'0 0.0
2017-Oct-17 00:00N 63°53' E 009°52'0 0.0
2017-Oct-16 23:30N 63°53' E 009°52'0 0.0
2017-Oct-16 23:00N 63°53' E 009°52'0 0.0
2017-Oct-16 22:30N 63°53' E 009°52'0 0.0
2017-Oct-16 22:00N 63°53' E 009°52'0 0.0
2017-Oct-16 21:29N 63°53' E 009°52'1 2.3
2017-Oct-16 21:00N 63°54' E 009°50'5 9.1
2017-Oct-16 20:30N 63°52' E 009°41'5 9.4
2017-Oct-16 20:00N 63°48' E 009°34'3 6.8
2017-Oct-16 19:30N 63°45' E 009°36'3 7.0
2017-Oct-16 19:00N 63°42' E 009°31'4 8.7
2017-Oct-16 18:30N 63°38' E 009°29'5 9.7
2017-Oct-16 17:59N 63°34' E 009°22'510.5
2017-Oct-16 17:30N 63°31' E 009°12'510.6
2017-Oct-16 17:00N 63°29' E 009°01'5 9.9
2017-Oct-16 16:30N 63°27' E 008°51'5 9.7
2017-Oct-16 15:59N 63°25' E 008°41'5 9.7
2017-Oct-16 15:30N 63°23' E 008°31'5 9.8
2017-Oct-16 15:00N 63°21' E 008°22'10 9.8
2017-Oct-16 14:00N 63°15' E 008°04'5 9.5
2017-Oct-16 13:30N 63°13' E 007°55'5 9.3
2017-Oct-16 13:00N 63°10' E 007°46'5 9.3
2017-Oct-16 12:30N 63°08' E 007°37'5 9.2
2017-Oct-16 12:00N 63°05' E 007°29'5 9.3
2017-Oct-16 11:30N 63°03' E 007°20'5 9.3
2017-Oct-16 11:00N 63°02' E 007°10'5 9.0
2017-Oct-16 10:30N 62°60' E 007°01'4 8.5
2017-Oct-16 10:00N 62°58' E 006°52'4 8.2
2017-Oct-16 09:30N 62°55' E 006°47'4 8.4
2017-Oct-16 09:00N 62°52' E 006°41'4 8.8
2017-Oct-16 08:30N 62°48' E 006°36'4 9.0
2017-Oct-16 08:00N 62°44' E 006°31'5 9.0
2017-Oct-16 07:30N 62°40' E 006°26'4 8.8
2017-Oct-16 07:00N 62°37' E 006°19'4 8.6
2017-Oct-16 06:30N 62°34' E 006°12'4 8.1
2017-Oct-16 06:00N 62°31' E 006°09'2 4.3
2017-Oct-16 05:30N 62°28' E 006°08'0 0.0
2017-Oct-16 05:00N 62°28' E 006°08'0 0.0
2017-Oct-16 04:30N 62°28' E 006°08'0 0.0
2017-Oct-16 04:00N 62°28' E 006°08'0 0.0
2017-Oct-16 03:30N 62°28' E 006°08'0 0.0
2017-Oct-16 03:00N 62°28' E 006°08'0 0.0
2017-Oct-16 02:30N 62°28' E 006°08'0 0.0
2017-Oct-16 02:00N 62°28' E 006°08'0 0.0
2017-Oct-16 01:30N 62°28' E 006°08'0 0.0
2017-Oct-16 01:00N 62°28' E 006°08'0 0.0
2017-Oct-16 00:30N 62°28' E 006°08'0 0.0
2017-Oct-16 00:00N 62°28' E 006°08'0 0.0
2017-Oct-15 23:30N 62°28' E 006°08'0 0.0
2017-Oct-15 23:00N 62°28' E 006°08'0 0.0
2017-Oct-15 22:30N 62°28' E 006°08'0 0.0
2017-Oct-15 22:00N 62°28' E 006°08'0 0.0
2017-Oct-15 21:30N 62°28' E 006°08'0 0.0
2017-Oct-15 21:00N 62°28' E 006°08'0 0.0
2017-Oct-15 20:30N 62°28' E 006°08'0 0.0
2017-Oct-15 20:00N 62°28' E 006°08'0 0.0
2017-Oct-15 19:30N 62°28' E 006°08'0 0.0
2017-Oct-15 19:00N 62°28' E 006°08'0 0.0
2017-Oct-15 18:30N 62°28' E 006°08'0 0.0
2017-Oct-15 18:00N 62°28' E 006°08'0 0.0
2017-Oct-15 17:29N 62°28' E 006°08'0 0.0
2017-Oct-15 17:00N 62°28' E 006°08'0 0.0
2017-Oct-15 16:30N 62°28' E 006°08'0 0.0
2017-Oct-15 16:00N 62°28' E 006°08'0 0.0
2017-Oct-15 15:30N 62°28' E 006°08'3 5.2
2017-Oct-15 15:00N 62°27' E 006°03'8 8.2
2017-Oct-15 14:00N 62°19' E 006°04'5 9.5
2017-Oct-15 13:30N 62°15' E 005°57'4 9.1
2017-Oct-15 13:00N 62°12' E 005°49'5 9.4
2017-Oct-15 12:30N 62°11' E 005°39'4 8.6
2017-Oct-15 12:00N 62°12' E 005°30'4 8.8
2017-Oct-15 11:30N 62°10' E 005°22'2 4.0
2017-Oct-15 11:00N 62°08' E 005°19'1 2.7
2017-Oct-15 10:30N 62°09' E 005°21'1 2.4
2017-Oct-15 10:00N 62°11' E 005°21'5 9.2
2017-Oct-15 09:30N 62°13' E 005°13'5 9.9
2017-Oct-15 09:00N 62°12' E 005°03'4 8.8
2017-Oct-15 08:30N 62°07' E 005°04'4 8.5
2017-Oct-15 08:00N 62°04' E 005°11'5 9.2
2017-Oct-15 07:30N 62°02' E 005°19'1 2.7
2017-Oct-15 07:00N 62°00' E 005°20'0 0.0
2017-Oct-15 06:30N 62°00' E 005°20'0 0.1
2017-Oct-15 06:00N 62°00' E 005°20'3 5.3
2017-Oct-15 05:29N 61°60' E 005°14'3 6.1
2017-Oct-15 05:00N 61°59' E 005°08'0 0.0
2017-Oct-15 04:30N 61°59' E 005°08'0 0.0
2017-Oct-15 03:59N 61°59' E 005°08'0 0.0
2017-Oct-15 03:30N 61°59' E 005°08'0 0.0
2017-Oct-15 03:00N 61°59' E 005°08'0 0.0
2017-Oct-15 02:30N 61°59' E 005°08'0 0.0
2017-Oct-15 02:00N 61°59' E 005°08'0 0.0
2017-Oct-15 01:30N 61°59' E 005°08'0 0.0
2017-Oct-15 01:00N 61°59' E 005°08'0 0.0
2017-Oct-15 00:30N 61°59' E 005°08'0 0.0
2017-Oct-15 00:00N 61°59' E 005°08'0 0.0
2017-Oct-14 23:30N 61°59' E 005°08'0 0.0
2017-Oct-14 23:00N 61°59' E 005°08'3 6.4
2017-Oct-14 22:30N 61°56' E 005°07'4 7.4
2017-Oct-14 22:00N 61°53' E 005°12'3 6.2
2017-Oct-14 21:30N 61°50' E 005°15'4 8.6
2017-Oct-14 21:00N 61°48' E 005°07'5 9.1
2017-Oct-14 20:30N 61°45' E 004°60'4 8.8
2017-Oct-14 20:00N 61°41' E 004°58'4 8.3
2017-Oct-14 19:30N 61°36' E 004°58'4 8.0
2017-Oct-14 19:00N 61°33' E 004°60'4 8.7
2017-Oct-14 18:30N 61°28' E 004°59'4 8.3
2017-Oct-14 18:00N 61°24' E 004°59'4 8.5
2017-Oct-14 17:30N 61°20' E 005°03'3 6.8
2017-Oct-14 17:00N 61°19' E 005°09'0 0.0
2017-Oct-14 16:30N 61°19' E 005°09'0 0.2
2017-Oct-14 16:00N 61°19' E 005°10'0 0.0
2017-Oct-14 15:30N 61°19' E 005°10'0 0.3
2017-Oct-14 15:00N 61°19' E 005°09'0 0.0
2017-Oct-14 14:30N 61°19' E 005°09'0 0.0
2017-Oct-14 14:00N 61°19' E 005°09'0 0.0
2017-Oct-14 13:30N 61°19' E 005°09'0 0.0
2017-Oct-14 13:00N 61°19' E 005°09'2 4.3
2017-Oct-14 12:30N 61°19' E 005°05'5 9.6
2017-Oct-14 12:00N 61°17' E 004°56'5 9.5
2017-Oct-14 11:30N 61°14' E 004°48'5 9.6
2017-Oct-14 11:00N 61°09' E 004°45'5 9.7
2017-Oct-14 10:29N 61°04' E 004°43'5 9.5
2017-Oct-14 09:59N 60°60' E 004°46'4 9.1
2017-Oct-14 09:30N 60°55' E 004°46'4 8.7
2017-Oct-14 09:00N 60°51' E 004°46'4 8.2
2017-Oct-14 08:30N 60°47' E 004°46'5 9.0
2017-Oct-14 08:00N 60°43' E 004°50'5 9.3
2017-Oct-14 07:30N 60°38' E 004°53'4 9.2
2017-Oct-14 07:00N 60°34' E 004°56'5 9.4
2017-Oct-14 06:29N 60°30' E 004°59'5 9.4
2017-Oct-14 05:59N 60°25' E 005°03'4 8.6
2017-Oct-14 05:30N 60°23' E 005°10'4 8.3
2017-Oct-14 05:00N 60°18' E 005°08'3 5.2
2017-Oct-14 04:30N 60°16' E 005°07'0 0.1
2017-Oct-14 04:00N 60°16' E 005°06'0 0.0
2017-Oct-14 03:30N 60°16' E 005°06'0 0.0
2017-Oct-14 03:00N 60°16' E 005°06'0 0.0
2017-Oct-14 02:30N 60°16' E 005°06'0 0.0
2017-Oct-14 02:00N 60°16' E 005°06'0 0.0
2017-Oct-14 01:29N 60°16' E 005°06'0 0.0
2017-Oct-14 01:00N 60°16' E 005°06'0 0.0
2017-Oct-14 00:30N 60°16' E 005°06'0 0.0
2017-Oct-14 00:00N 60°16' E 005°06'0 0.0
2017-Oct-13 23:30N 60°16' E 005°06'1 2.5
2017-Oct-13 23:00N 60°17' E 005°09'4 8.1
2017-Oct-13 22:30N 60°21' E 005°10'4 7.7
2017-Oct-13 22:00N 60°24' E 005°07'4 8.6
2017-Oct-13 21:30N 60°27' E 005°01'4 8.7
2017-Oct-13 20:59N 60°31' E 004°57'4 8.7
2017-Oct-13 20:29N 60°35' E 004°54'4 8.6
2017-Oct-13 20:00N 60°39' E 004°50'3 5.9
2017-Oct-13 19:30N 60°41' E 004°46'0 0.0
2017-Oct-13 19:00N 60°41' E 004°46'2 4.9
2017-Oct-13 18:30N 60°41' E 004°51'2 4.8
2017-Oct-13 17:59N 60°40' E 004°55'0 0.7
2017-Oct-13 17:30N 60°40' E 004°55'0 0.0
2017-Oct-13 17:00N 60°40' E 004°55'0 0.0
2017-Oct-13 16:30N 60°40' E 004°55'3 6.6
2017-Oct-13 16:00N 60°43' E 004°50'4 7.6
2017-Oct-13 15:30N 60°46' E 004°46'4 7.3
2017-Oct-13 15:00N 60°50' E 004°44'4 8.1
2017-Oct-13 14:30N 60°53' E 004°46'4 8.1
2017-Oct-13 13:59N 60°58' E 004°45'4 8.0
2017-Oct-13 13:30N 61°02' E 004°45'4 7.9
2017-Oct-13 13:00N 61°05' E 004°44'4 8.2
2017-Oct-13 12:30N 61°09' E 004°45'4 8.4
2017-Oct-13 12:00N 61°13' E 004°42'4 7.7
2017-Oct-13 11:29N 61°17' E 004°47'4 7.9
2017-Oct-13 11:00N 61°21' E 004°48'4 7.8
2017-Oct-13 10:30N 61°24' E 004°51'4 8.3
2017-Oct-13 10:00N 61°28' E 004°56'4 8.1
2017-Oct-13 09:29N 61°31' E 004°60'4 8.0
2017-Oct-13 09:00N 61°35' E 004°57'3 5.3
2017-Oct-13 08:30N 61°36' E 005°02'0 0.0
2017-Oct-13 07:59N 61°36' E 005°02'28 5.8
2017-Oct-13 03:05N 62°05' E 005°01'1 8.6
2017-Oct-13 03:00N 62°05' E 004°60'4 7.4
2017-Oct-13 02:30N 62°09' E 004°59'4 7.1
2017-Oct-13 02:00N 62°12' E 005°03'4 8.0
2017-Oct-13 01:29N 62°14' E 005°10'4 8.6
2017-Oct-13 01:00N 62°12' E 005°18'4 7.5
2017-Oct-13 00:29N 62°12' E 005°26'4 8.0
2017-Oct-13 00:00N 62°11' E 005°35'4 8.8
2017-Oct-12 23:30N 62°12' E 005°44'5 9.1
2017-Oct-12 23:00N 62°12' E 005°54'0 1.0
2017-Oct-12 22:30N 62°12' E 005°54'2 3.9
2017-Oct-12 21:58N 62°14' E 005°56'4 9.1
2017-Oct-12 21:29N 62°17' E 006°01'5 9.2
2017-Oct-12 21:00N 62°21' E 006°07'5 9.2
2017-Oct-12 20:30N 62°25' E 006°03'4 8.5
2017-Oct-12 20:00N 62°29' E 006°07'4 9.0
2017-Oct-12 19:30N 62°33' E 006°10'5 9.2
2017-Oct-12 19:00N 62°36' E 006°17'5 9.1
2017-Oct-12 18:30N 62°40' E 006°25'4 8.9
2017-Oct-12 18:00N 62°43' E 006°30'4 8.8
2017-Oct-12 17:30N 62°47' E 006°35'4 8.7
2017-Oct-12 17:00N 62°51' E 006°40'6 9.0
2017-Oct-12 16:24N 62°55' E 006°47'3 8.5
2017-Oct-12 16:00N 62°58' E 006°51'4 8.7
2017-Oct-12 15:30N 62°60' E 007°00'4 8.8
2017-Oct-12 15:00N 63°01' E 007°09'4 8.7
2017-Oct-12 14:30N 63°03' E 007°18'4 8.8
2017-Oct-12 14:00N 63°05' E 007°27'4 8.8
2017-Oct-12 13:30N 63°07' E 007°35'4 8.6
2017-Oct-12 13:00N 63°09' E 007°44'4 8.2
2017-Oct-12 12:30N 63°08' E 007°53'4 8.5
2017-Oct-12 12:00N 63°03' E 007°53'1 3.0
2017-Oct-12 11:30N 63°02' E 007°51'3 6.9
2017-Oct-12 11:00N 63°01' E 007°44'2 4.4
2017-Oct-12 10:30N 63°03' E 007°42'0 0.0
2017-Oct-12 10:00N 63°03' E 007°42'2 4.4
2017-Oct-12 09:30N 63°05' E 007°41'4 8.5
2017-Oct-12 09:00N 63°09' E 007°45'4 8.9
2017-Oct-12 08:30N 63°12' E 007°53'4 8.9
2017-Oct-12 08:00N 63°15' E 008°01'4 8.6
2017-Oct-12 07:30N 63°17' E 008°09'4 8.3
2017-Oct-12 07:00N 63°19' E 008°16'4 7.5
2017-Oct-12 06:29N 63°23' E 008°15'1 2.2
2017-Oct-12 06:00N 63°24' E 008°13'0 0.3
2017-Oct-12 05:29N 63°24' E 008°13'4 8.9
2017-Oct-12 04:59N 63°24' E 008°23'4 8.8
2017-Oct-12 04:30N 63°25' E 008°32'4 8.8
2017-Oct-12 04:00N 63°26' E 008°42'4 8.7
2017-Oct-12 03:30N 63°27' E 008°51'4 8.8
2017-Oct-12 03:00N 63°28' E 009°01'4 8.3
2017-Oct-12 02:30N 63°26' E 009°08'3 6.1
2017-Oct-12 02:00N 63°23' E 009°10'0 0.0
2017-Oct-12 01:30N 63°23' E 009°10'3 5.5
2017-Oct-12 01:00N 63°25' E 009°08'4 8.7
2017-Oct-12 00:30N 63°30' E 009°05'4 7.3
2017-Oct-12 00:00N 63°32' E 009°12'3 6.8
2017-Oct-11 23:30N 63°35' E 009°14'3 6.7
2017-Oct-11 23:00N 63°38' E 009°11'0 0.0
2017-Oct-11 22:30N 63°38' E 009°11'0 0.1
2017-Oct-11 22:00N 63°38' E 009°11'0 0.1
2017-Oct-11 21:30N 63°38' E 009°11'0 0.0
2017-Oct-11 21:00N 63°38' E 009°11'0 0.1
2017-Oct-11 20:30N 63°38' E 009°11'0 0.0
2017-Oct-11 20:00N 63°38' E 009°11'0 0.2
2017-Oct-11 19:30N 63°38' E 009°11'0 0.0
2017-Oct-11 19:00N 63°38' E 009°11'0 0.3
2017-Oct-11 18:30N 63°38' E 009°11'0 0.0
2017-Oct-11 18:00N 63°38' E 009°11'0 0.0
2017-Oct-11 17:30N 63°38' E 009°11'0 0.0
2017-Oct-11 17:00N 63°38' E 009°11'24 1.4
2017-Oct-11 00:00N 63°53' E 009°52'0 0.0
2017-Oct-10 23:30N 63°53' E 009°52'0 0.0
2017-Oct-10 23:00N 63°53' E 009°52'0 0.0
2017-Oct-10 22:30N 63°53' E 009°52'0 0.0
2017-Oct-10 22:00N 63°53' E 009°52'0 0.0
2017-Oct-10 21:30N 63°53' E 009°52'0 0.0
2017-Oct-10 21:00N 63°53' E 009°52'0 0.0
2017-Oct-10 20:30N 63°53' E 009°52'0 0.0
2017-Oct-10 20:00N 63°53' E 009°52'0 0.0
2017-Oct-10 19:30N 63°53' E 009°52'0 0.0
2017-Oct-10 19:00N 63°53' E 009°52'0 0.0
2017-Oct-10 18:30N 63°53' E 009°52'0 0.0
2017-Oct-10 18:00N 63°53' E 009°52'0 0.0
2017-Oct-10 17:30N 63°53' E 009°52'0 0.5
2017-Oct-10 17:00N 63°53' E 009°53'2 3.1
2017-Oct-10 16:30N 63°53' E 009°49'4 8.8
2017-Oct-10 16:00N 63°51' E 009°40'5 9.1
2017-Oct-10 15:30N 63°48' E 009°34'5 9.4
2017-Oct-10 15:00N 63°43' E 009°32'10 9.7
2017-Oct-10 14:00N 63°34' E 009°23'510.1
2017-Oct-10 13:30N 63°32' E 009°13'510.3
2017-Oct-10 13:00N 63°29' E 009°03'5 9.8
2017-Oct-10 12:30N 63°27' E 008°52'5 9.5
2017-Oct-10 12:00N 63°26' E 008°42'5 9.6
2017-Oct-10 11:30N 63°24' E 008°33'5 9.8
2017-Oct-10 11:00N 63°21' E 008°23'5 9.8
2017-Oct-10 10:30N 63°18' E 008°15'  
Track history (hours):
 
Tides and Currents Weather Stations Pressure Air Temp Water Temp Dewpoint Dewpoint Depression Visibility Wind Speed Wind Dir Waves Ship Positions

Biotrans

Last reported at 2017-Oct-20 10:30 UTC. Time now 2017-Oct-20 10:41 UTC.
Position N 61°06' E 004°43'.

Length 55 m; draft 5.5 m.

Type: Cargo ship. MMSI: 259260000.

Date/timePositionNaut miles runAvg speedWind from/ knotsBaromVisibWave heightAir tempDewpointWater temp
2017-Oct-20 10:30N 61°06' E 004°43'0 0.1
2017-Oct-20 10:00N 61°06' E 004°43'0 0.0
2017-Oct-20 09:30N 61°06' E 004°43'0 0.0
2017-Oct-20 09:00N 61°06' E 004°43'0 0.1
2017-Oct-20 08:30N 61°06' E 004°43'0 0.0
2017-Oct-20 08:00N 61°06' E 004°43'0 0.0
2017-Oct-20 07:30N 61°06' E 004°43'0 0.0
2017-Oct-20 07:00N 61°06' E 004°43'0 0.2
2017-Oct-20 06:30N 61°06' E 004°43'0 0.0
2017-Oct-20 06:00N 61°06' E 004°43'0 0.0
2017-Oct-20 05:30N 61°06' E 004°43'0 0.0
2017-Oct-20 05:00N 61°06' E 004°43'0 0.0
2017-Oct-20 04:30N 61°06' E 004°43'0 0.0
2017-Oct-20 04:00N 61°06' E 004°43'0 0.0
2017-Oct-20 03:30N 61°06' E 004°43'0 0.0
2017-Oct-20 02:59N 61°06' E 004°43'0 0.0
2017-Oct-20 02:30N 61°06' E 004°43'0 0.0
2017-Oct-20 02:00N 61°06' E 004°43'0 0.0
2017-Oct-20 01:30N 61°06' E 004°43'0 0.0
2017-Oct-20 01:00N 61°06' E 004°43'0 0.0
2017-Oct-20 00:30N 61°06' E 004°43'0 0.0
2017-Oct-20 00:00N 61°06' E 004°43'0 0.0
2017-Oct-19 23:29N 61°06' E 004°43'0 0.0
2017-Oct-19 23:00N 61°06' E 004°43'0 0.0
2017-Oct-19 22:30N 61°06' E 004°43'3 6.3
2017-Oct-19 22:00N 61°03' E 004°44'4 6.9
2017-Oct-19 21:30N 61°01' E 004°50'5 9.9
2017-Oct-19 21:00N 61°04' E 004°59'2 4.8
2017-Oct-19 20:30N 61°06' E 005°01'1 2.5
2017-Oct-19 20:00N 61°08' E 005°02'3 6.1
2017-Oct-19 19:30N 61°10' E 005°00'0 0.0
2017-Oct-19 19:00N 61°10' E 005°00'2 4.8
2017-Oct-19 18:30N 61°13' E 004°58'4 8.5
2017-Oct-19 18:00N 61°17' E 004°55'5 9.6
2017-Oct-19 17:29N 61°19' E 005°04'5 9.4
2017-Oct-19 17:00N 61°21' E 005°13'2 4.6
2017-Oct-19 16:30N 61°21' E 005°17'3 5.8
2017-Oct-19 16:00N 61°21' E 005°11'4 7.7
2017-Oct-19 15:30N 61°20' E 005°04'4 8.9
2017-Oct-19 15:00N 61°24' E 004°60'4 8.6
2017-Oct-19 14:30N 61°28' E 004°59'4 8.8
2017-Oct-19 14:00N 61°32' E 004°59'1 1.3
2017-Oct-19 13:30N 61°33' E 004°58'2 4.5
2017-Oct-19 13:00N 61°35' E 004°57'3 5.9
2017-Oct-19 12:29N 61°34' E 004°51'0 0.0
2017-Oct-19 12:00N 61°34' E 004°51'3 5.2
2017-Oct-19 11:30N 61°35' E 004°56'3 6.3
2017-Oct-19 11:00N 61°38' E 004°52'0 0.6
2017-Oct-19 10:30N 61°38' E 004°52'4 8.0
2017-Oct-19 10:00N 61°41' E 004°56'5 9.1
2017-Oct-19 09:30N 61°45' E 005°01'2 3.1
2017-Oct-19 08:59N 61°45' E 005°04'1 2.8
2017-Oct-19 08:30N 61°47' E 005°06'5 9.3
2017-Oct-19 08:00N 61°50' E 005°13'3 5.9
2017-Oct-19 07:30N 61°52' E 005°13'3 5.7
2017-Oct-19 07:00N 61°54' E 005°17'0 0.8
2017-Oct-19 06:30N 61°55' E 005°18'2 3.8
2017-Oct-19 06:00N 61°54' E 005°14'3 7.0
2017-Oct-19 05:30N 61°55' E 005°07'2 3.4
2017-Oct-19 05:00N 61°56' E 005°08'0 0.0
2017-Oct-19 04:30N 61°56' E 005°08'0 0.0
2017-Oct-19 04:00N 61°57' E 005°08'0 0.0
2017-Oct-19 03:30N 61°57' E 005°08'0 0.0
2017-Oct-19 03:00N 61°57' E 005°08'0 0.0
2017-Oct-19 02:30N 61°56' E 005°08'0 0.0
2017-Oct-19 02:00N 61°57' E 005°08'0 0.0
2017-Oct-19 01:30N 61°56' E 005°08'0 0.0
2017-Oct-19 01:00N 61°56' E 005°08'2 4.8
2017-Oct-19 00:30N 61°59' E 005°09'5 9.1
2017-Oct-19 00:00N 62°03' E 005°08'5 9.5
2017-Oct-18 23:29N 62°08' E 005°05'4 9.0
2017-Oct-18 23:00N 62°12' E 005°07'4 8.7
2017-Oct-18 22:30N 62°12' E 005°16'5 9.4
2017-Oct-18 22:00N 62°08' E 005°22'2 4.3
2017-Oct-18 21:30N 62°07' E 005°26'0 0.0
2017-Oct-18 21:00N 62°07' E 005°26'1 2.2
2017-Oct-18 20:30N 62°07' E 005°23'4 7.6
2017-Oct-18 20:00N 62°11' E 005°26'4 7.6
2017-Oct-18 19:30N 62°11' E 005°34'5 9.1
2017-Oct-18 19:00N 62°12' E 005°44'5 9.3
2017-Oct-18 18:30N 62°12' E 005°54'1 1.1
2017-Oct-18 18:00N 62°12' E 005°54'0 0.0
2017-Oct-18 17:30N 62°12' E 005°54'0 0.0
2017-Oct-18 16:59N 62°12' E 005°54'2 3.5
2017-Oct-18 16:30N 62°13' E 005°55'5 9.6
2017-Oct-18 16:00N 62°17' E 006°01'5 9.5
2017-Oct-18 15:30N 62°20' E 006°09'510.0
2017-Oct-18 15:00N 62°23' E 006°19'1110.7
2017-Oct-18 14:00N 62°27' E 006°40'510.2
2017-Oct-18 13:30N 62°26' E 006°51'5 9.4
2017-Oct-18 13:00N 62°22' E 006°56'5 9.8
2017-Oct-18 12:30N 62°18' E 007°01'3 5.6
2017-Oct-18 12:00N 62°18' E 007°07'1 2.4
2017-Oct-18 11:30N 62°18' E 007°05'3 5.1
2017-Oct-18 11:00N 62°17' E 006°59'2 4.4
2017-Oct-18 10:30N 62°19' E 006°58'2 4.5
2017-Oct-18 10:00N 62°21' E 006°55'2 4.7
2017-Oct-18 09:30N 62°23' E 006°55'4 8.5
2017-Oct-18 09:00N 62°26' E 006°49'5 9.2
2017-Oct-18 08:30N 62°27' E 006°39'5 9.8
2017-Oct-18 08:00N 62°25' E 006°29'5 9.8
2017-Oct-18 07:30N 62°24' E 006°19'510.0
2017-Oct-18 07:00N 62°24' E 006°08'4 7.7
2017-Oct-18 06:30N 62°27' E 006°04'4 9.1
2017-Oct-18 06:00N 62°31' E 006°09'5 9.3
2017-Oct-18 05:30N 62°35' E 006°14'5 9.5
2017-Oct-18 05:00N 62°38' E 006°22'5 9.5
2017-Oct-18 04:30N 62°42' E 006°28'5 9.9
2017-Oct-18 04:00N 62°46' E 006°34'5 9.7
2017-Oct-18 03:30N 62°50' E 006°39'5 9.9
2017-Oct-18 03:00N 62°54' E 006°45'5 9.5
2017-Oct-18 02:30N 62°58' E 006°52'5 9.4
2017-Oct-18 02:00N 63°00' E 007°01'5 9.6
2017-Oct-18 01:30N 63°02' E 007°11'5 9.9
2017-Oct-18 01:00N 63°04' E 007°21'510.3
2017-Oct-18 00:30N 63°06' E 007°31'510.2
2017-Oct-18 00:00N 63°09' E 007°40'510.0
2017-Oct-17 23:30N 63°11' E 007°50'510.0
2017-Oct-17 23:00N 63°14' E 007°59'5 9.8
2017-Oct-17 22:30N 63°17' E 008°09'5 9.8
2017-Oct-17 22:00N 63°19' E 008°17'5 9.8
2017-Oct-17 21:30N 63°22' E 008°26'5 9.8
2017-Oct-17 21:00N 63°24' E 008°36'5 9.6
2017-Oct-17 20:30N 63°26' E 008°46'5 9.5
2017-Oct-17 20:00N 63°28' E 008°56'5 9.3
2017-Oct-17 19:30N 63°30' E 009°05'4 8.7
2017-Oct-17 19:00N 63°32' E 009°14'5 9.1
2017-Oct-17 18:30N 63°34' E 009°23'4 9.0
2017-Oct-17 18:00N 63°38' E 009°29'5 9.9
2017-Oct-17 17:30N 63°43' E 009°31'5 9.5
2017-Oct-17 17:00N 63°45' E 009°41'2 4.5
2017-Oct-17 16:30N 63°46' E 009°46'0 0.0
2017-Oct-17 15:59N 63°46' E 009°46'0 0.0
2017-Oct-17 15:30N 63°46' E 009°46'4 7.3
2017-Oct-17 15:00N 63°45' E 009°38'3 6.3
2017-Oct-17 14:30N 63°47' E 009°34'5 9.0
2017-Oct-17 14:00N 63°51' E 009°39'4 8.8
2017-Oct-17 13:30N 63°53' E 009°48'2 4.0
2017-Oct-17 13:00N 63°53' E 009°53'0 0.5
2017-Oct-17 12:30N 63°53' E 009°52'0 0.0
2017-Oct-17 12:00N 63°53' E 009°52'0 0.0
2017-Oct-17 11:30N 63°53' E 009°52'0 0.0
2017-Oct-17 10:59N 63°53' E 009°52'0 0.0
2017-Oct-17 10:30N 63°53' E 009°52'0 0.0
2017-Oct-17 10:00N 63°53' E 009°52'0 0.0
2017-Oct-17 09:30N 63°53' E 009°52'0 0.0
2017-Oct-17 09:00N 63°53' E 009°52'0 0.0
2017-Oct-17 08:30N 63°53' E 009°52'0 0.0
2017-Oct-17 08:00N 63°53' E 009°52'0 0.0
2017-Oct-17 07:29N 63°53' E 009°52'0 0.0
2017-Oct-17 07:00N 63°53' E 009°52'0 0.0
2017-Oct-17 06:30N 63°53' E 009°52'0 0.0
2017-Oct-17 06:00N 63°53' E 009°52'0 0.0
2017-Oct-17 05:30N 63°53' E 009°52'0 0.0
2017-Oct-17 05:00N 63°53' E 009°52'0 0.0
2017-Oct-17 04:30N 63°53' E 009°52'0 0.0
2017-Oct-17 04:00N 63°53' E 009°52'0 0.0
2017-Oct-17 03:30N 63°53' E 009°52'0 0.0
2017-Oct-17 02:59N 63°53' E 009°52'0 0.0
2017-Oct-17 02:29N 63°53' E 009°52'0 0.0
2017-Oct-17 02:00N 63°53' E 009°52'0 0.0
2017-Oct-17 01:30N 63°53' E 009°52'0 0.0
2017-Oct-17 01:00N 63°53' E 009°52'0 0.0
2017-Oct-17 00:30N 63°53' E 009°52'0 0.0
2017-Oct-17 00:00N 63°53' E 009°52'0 0.0
2017-Oct-16 23:30N 63°53' E 009°52'0 0.0
2017-Oct-16 23:00N 63°53' E 009°52'0 0.0
2017-Oct-16 22:30N 63°53' E 009°52'0 0.0
2017-Oct-16 22:00N 63°53' E 009°52'0 0.0
2017-Oct-16 21:29N 63°53' E 009°52'1 2.3
2017-Oct-16 21:00N 63°54' E 009°50'5 9.1
2017-Oct-16 20:30N 63°52' E 009°41'5 9.4
2017-Oct-16 20:00N 63°48' E 009°34'3 6.8
2017-Oct-16 19:30N 63°45' E 009°36'3 7.0
2017-Oct-16 19:00N 63°42' E 009°31'4 8.7
2017-Oct-16 18:30N 63°38' E 009°29'5 9.7
2017-Oct-16 17:59N 63°34' E 009°22'510.5
2017-Oct-16 17:30N 63°31' E 009°12'510.6
2017-Oct-16 17:00N 63°29' E 009°01'5 9.9
2017-Oct-16 16:30N 63°27' E 008°51'5 9.7
2017-Oct-16 15:59N 63°25' E 008°41'5 9.7
2017-Oct-16 15:30N 63°23' E 008°31'5 9.8
2017-Oct-16 15:00N 63°21' E 008°22'10 9.8
2017-Oct-16 14:00N 63°15' E 008°04'5 9.5
2017-Oct-16 13:30N 63°13' E 007°55'5 9.3
2017-Oct-16 13:00N 63°10' E 007°46'5 9.3
2017-Oct-16 12:30N 63°08' E 007°37'5 9.2
2017-Oct-16 12:00N 63°05' E 007°29'5 9.3
2017-Oct-16 11:30N 63°03' E 007°20'5 9.3
2017-Oct-16 11:00N 63°02' E 007°10'5 9.0
2017-Oct-16 10:30N 62°60' E 007°01'4 8.5
2017-Oct-16 10:00N 62°58' E 006°52'4 8.2
2017-Oct-16 09:30N 62°55' E 006°47'4 8.4
2017-Oct-16 09:00N 62°52' E 006°41'4 8.8
2017-Oct-16 08:30N 62°48' E 006°36'4 9.0
2017-Oct-16 08:00N 62°44' E 006°31'5 9.0
2017-Oct-16 07:30N 62°40' E 006°26'4 8.8
2017-Oct-16 07:00N 62°37' E 006°19'4 8.6
2017-Oct-16 06:30N 62°34' E 006°12'4 8.1
2017-Oct-16 06:00N 62°31' E 006°09'2 4.3
2017-Oct-16 05:30N 62°28' E 006°08'0 0.0
2017-Oct-16 05:00N 62°28' E 006°08'0 0.0
2017-Oct-16 04:30N 62°28' E 006°08'0 0.0
2017-Oct-16 04:00N 62°28' E 006°08'0 0.0
2017-Oct-16 03:30N 62°28' E 006°08'0 0.0
2017-Oct-16 03:00N 62°28' E 006°08'0 0.0
2017-Oct-16 02:30N 62°28' E 006°08'0 0.0
2017-Oct-16 02:00N 62°28' E 006°08'0 0.0
2017-Oct-16 01:30N 62°28' E 006°08'0 0.0
2017-Oct-16 01:00N 62°28' E 006°08'0 0.0
2017-Oct-16 00:30N 62°28' E 006°08'0 0.0
2017-Oct-16 00:00N 62°28' E 006°08'0 0.0
2017-Oct-15 23:30N 62°28' E 006°08'0 0.0
2017-Oct-15 23:00N 62°28' E 006°08'0 0.0
2017-Oct-15 22:30N 62°28' E 006°08'0 0.0
2017-Oct-15 22:00N 62°28' E 006°08'0 0.0
2017-Oct-15 21:30N 62°28' E 006°08'0 0.0
2017-Oct-15 21:00N 62°28' E 006°08'0 0.0
2017-Oct-15 20:30N 62°28' E 006°08'0 0.0
2017-Oct-15 20:00N 62°28' E 006°08'0 0.0
2017-Oct-15 19:30N 62°28' E 006°08'0 0.0
2017-Oct-15 19:00N 62°28' E 006°08'0 0.0
2017-Oct-15 18:30N 62°28' E 006°08'0 0.0
2017-Oct-15 18:00N 62°28' E 006°08'0 0.0
2017-Oct-15 17:29N 62°28' E 006°08'0 0.0
2017-Oct-15 17:00N 62°28' E 006°08'0 0.0
2017-Oct-15 16:30N 62°28' E 006°08'0 0.0
2017-Oct-15 16:00N 62°28' E 006°08'0 0.0
2017-Oct-15 15:30N 62°28' E 006°08'3 5.2
2017-Oct-15 15:00N 62°27' E 006°03'8 8.2
2017-Oct-15 14:00N 62°19' E 006°04'5 9.5
2017-Oct-15 13:30N 62°15' E 005°57'4 9.1
2017-Oct-15 13:00N 62°12' E 005°49'5 9.4
2017-Oct-15 12:30N 62°11' E 005°39'4 8.6
2017-Oct-15 12:00N 62°12' E 005°30'4 8.8
2017-Oct-15 11:30N 62°10' E 005°22'2 4.0
2017-Oct-15 11:00N 62°08' E 005°19'1 2.7
2017-Oct-15 10:30N 62°09' E 005°21'1 2.4
2017-Oct-15 10:00N 62°11' E 005°21'5 9.2
2017-Oct-15 09:30N 62°13' E 005°13'5 9.9
2017-Oct-15 09:00N 62°12' E 005°03'4 8.8
2017-Oct-15 08:30N 62°07' E 005°04'4 8.5
2017-Oct-15 08:00N 62°04' E 005°11'5 9.2
2017-Oct-15 07:30N 62°02' E 005°19'1 2.7
2017-Oct-15 07:00N 62°00' E 005°20'0 0.0
2017-Oct-15 06:30N 62°00' E 005°20'0 0.1
2017-Oct-15 06:00N 62°00' E 005°20'3 5.3
2017-Oct-15 05:29N 61°60' E 005°14'3 6.1
2017-Oct-15 05:00N 61°59' E 005°08'0 0.0
2017-Oct-15 04:30N 61°59' E 005°08'0 0.0
2017-Oct-15 03:59N 61°59' E 005°08'0 0.0
2017-Oct-15 03:30N 61°59' E 005°08'0 0.0
2017-Oct-15 03:00N 61°59' E 005°08'0 0.0
2017-Oct-15 02:30N 61°59' E 005°08'0 0.0
2017-Oct-15 02:00N 61°59' E 005°08'0 0.0
2017-Oct-15 01:30N 61°59' E 005°08'0 0.0
2017-Oct-15 01:00N 61°59' E 005°08'0 0.0
2017-Oct-15 00:30N 61°59' E 005°08'0 0.0
2017-Oct-15 00:00N 61°59' E 005°08'0 0.0
2017-Oct-14 23:30N 61°59' E 005°08'0 0.0
2017-Oct-14 23:00N 61°59' E 005°08'3 6.4
2017-Oct-14 22:30N 61°56' E 005°07'4 7.4
2017-Oct-14 22:00N 61°53' E 005°12'3 6.2
2017-Oct-14 21:30N 61°50' E 005°15'4 8.6
2017-Oct-14 21:00N 61°48' E 005°07'5 9.1
2017-Oct-14 20:30N 61°45' E 004°60'4 8.8
2017-Oct-14 20:00N 61°41' E 004°58'4 8.3
2017-Oct-14 19:30N 61°36' E 004°58'4 8.0
2017-Oct-14 19:00N 61°33' E 004°60'4 8.7
2017-Oct-14 18:30N 61°28' E 004°59'4 8.3
2017-Oct-14 18:00N 61°24' E 004°59'4 8.5
2017-Oct-14 17:30N 61°20' E 005°03'3 6.8
2017-Oct-14 17:00N 61°19' E 005°09'0 0.0
2017-Oct-14 16:30N 61°19' E 005°09'0 0.2
2017-Oct-14 16:00N 61°19' E 005°10'0 0.0
2017-Oct-14 15:30N 61°19' E 005°10'0 0.3
2017-Oct-14 15:00N 61°19' E 005°09'0 0.0
2017-Oct-14 14:30N 61°19' E 005°09'0 0.0
2017-Oct-14 14:00N 61°19' E 005°09'0 0.0
2017-Oct-14 13:30N 61°19' E 005°09'0 0.0
2017-Oct-14 13:00N 61°19' E 005°09'2 4.3
2017-Oct-14 12:30N 61°19' E 005°05'5 9.6
2017-Oct-14 12:00N 61°17' E 004°56'5 9.5
2017-Oct-14 11:30N 61°14' E 004°48'5 9.6
2017-Oct-14 11:00N 61°09' E 004°45'5 9.7
2017-Oct-14 10:29N 61°04' E 004°43'5 9.5
2017-Oct-14 09:59N 60°60' E 004°46'4 9.1
2017-Oct-14 09:30N 60°55' E 004°46'4 8.7
2017-Oct-14 09:00N 60°51' E 004°46'4 8.2
2017-Oct-14 08:30N 60°47' E 004°46'5 9.0
2017-Oct-14 08:00N 60°43' E 004°50'5 9.3
2017-Oct-14 07:30N 60°38' E 004°53'4 9.2
2017-Oct-14 07:00N 60°34' E 004°56'5 9.4
2017-Oct-14 06:29N 60°30' E 004°59'5 9.4
2017-Oct-14 05:59N 60°25' E 005°03'4 8.6
2017-Oct-14 05:30N 60°23' E 005°10'4 8.3
2017-Oct-14 05:00N 60°18' E 005°08'3 5.2
2017-Oct-14 04:30N 60°16' E 005°07'0 0.1
2017-Oct-14 04:00N 60°16' E 005°06'0 0.0
2017-Oct-14 03:30N 60°16' E 005°06'0 0.0
2017-Oct-14 03:00N 60°16' E 005°06'0 0.0
2017-Oct-14 02:30N 60°16' E 005°06'0 0.0
2017-Oct-14 02:00N 60°16' E 005°06'0 0.0
2017-Oct-14 01:29N 60°16' E 005°06'0 0.0
2017-Oct-14 01:00N 60°16' E 005°06'0 0.0
2017-Oct-14 00:30N 60°16' E 005°06'0 0.0
2017-Oct-14 00:00N 60°16' E 005°06'0 0.0
2017-Oct-13 23:30N 60°16' E 005°06'1 2.5
2017-Oct-13 23:00N 60°17' E 005°09'4 8.1
2017-Oct-13 22:30N 60°21' E 005°10'4 7.7
2017-Oct-13 22:00N 60°24' E 005°07'4 8.6
2017-Oct-13 21:30N 60°27' E 005°01'4 8.7
2017-Oct-13 20:59N 60°31' E 004°57'4 8.7
2017-Oct-13 20:29N 60°35' E 004°54'4 8.6
2017-Oct-13 20:00N 60°39' E 004°50'3 5.9
2017-Oct-13 19:30N 60°41' E 004°46'0 0.0
2017-Oct-13 19:00N 60°41' E 004°46'2 4.9
2017-Oct-13 18:30N 60°41' E 004°51'2 4.8
2017-Oct-13 17:59N 60°40' E 004°55'0 0.7
2017-Oct-13 17:30N 60°40' E 004°55'0 0.0
2017-Oct-13 17:00N 60°40' E 004°55'0 0.0
2017-Oct-13 16:30N 60°40' E 004°55'3 6.6
2017-Oct-13 16:00N 60°43' E 004°50'4 7.6
2017-Oct-13 15:30N 60°46' E 004°46'4 7.3
2017-Oct-13 15:00N 60°50' E 004°44'4 8.1
2017-Oct-13 14:30N 60°53' E 004°46'4 8.1
2017-Oct-13 13:59N 60°58' E 004°45'4 8.0
2017-Oct-13 13:30N 61°02' E 004°45'4 7.9
2017-Oct-13 13:00N 61°05' E 004°44'4 8.2
2017-Oct-13 12:30N 61°09' E 004°45'4 8.4
2017-Oct-13 12:00N 61°13' E 004°42'4 7.7
2017-Oct-13 11:29N 61°17' E 004°47'4 7.9
2017-Oct-13 11:00N 61°21' E 004°48'4 7.8
2017-Oct-13 10:30N 61°24' E 004°51'4 8.3
2017-Oct-13 10:00N 61°28' E 004°56'4 8.1
2017-Oct-13 09:29N 61°31' E 004°60'4 8.0
2017-Oct-13 09:00N 61°35' E 004°57'3 5.3
2017-Oct-13 08:30N 61°36' E 005°02'0 0.0
2017-Oct-13 07:59N 61°36' E 005°02'28 5.8
2017-Oct-13 03:05N 62°05' E 005°01'1 8.6
2017-Oct-13 03:00N 62°05' E 004°60'4 7.4
2017-Oct-13 02:30N 62°09' E 004°59'4 7.1
2017-Oct-13 02:00N 62°12' E 005°03'4 8.0
2017-Oct-13 01:29N 62°14' E 005°10'4 8.6
2017-Oct-13 01:00N 62°12' E 005°18'4 7.5
2017-Oct-13 00:29N 62°12' E 005°26'4 8.0
2017-Oct-13 00:00N 62°11' E 005°35'4 8.8
2017-Oct-12 23:30N 62°12' E 005°44'5 9.1
2017-Oct-12 23:00N 62°12' E 005°54'0 1.0
2017-Oct-12 22:30N 62°12' E 005°54'2 3.9
2017-Oct-12 21:58N 62°14' E 005°56'4 9.1
2017-Oct-12 21:29N 62°17' E 006°01'5 9.2
2017-Oct-12 21:00N 62°21' E 006°07'5 9.2
2017-Oct-12 20:30N 62°25' E 006°03'4 8.5
2017-Oct-12 20:00N 62°29' E 006°07'4 9.0
2017-Oct-12 19:30N 62°33' E 006°10'5 9.2
2017-Oct-12 19:00N 62°36' E 006°17'5 9.1
2017-Oct-12 18:30N 62°40' E 006°25'4 8.9
2017-Oct-12 18:00N 62°43' E 006°30'4 8.8
2017-Oct-12 17:30N 62°47' E 006°35'4 8.7
2017-Oct-12 17:00N 62°51' E 006°40'6 9.0
2017-Oct-12 16:24N 62°55' E 006°47'3 8.5
2017-Oct-12 16:00N 62°58' E 006°51'4 8.7
2017-Oct-12 15:30N 62°60' E 007°00'4 8.8
2017-Oct-12 15:00N 63°01' E 007°09'4 8.7
2017-Oct-12 14:30N 63°03' E 007°18'4 8.8
2017-Oct-12 14:00N 63°05' E 007°27'4 8.8
2017-Oct-12 13:30N 63°07' E 007°35'4 8.6
2017-Oct-12 13:00N 63°09' E 007°44'4 8.2
2017-Oct-12 12:30N 63°08' E 007°53'4 8.5
2017-Oct-12 12:00N 63°03' E 007°53'1 3.0
2017-Oct-12 11:30N 63°02' E 007°51'3 6.9
2017-Oct-12 11:00N 63°01' E 007°44'2 4.4
2017-Oct-12 10:30N 63°03' E 007°42'0 0.0
2017-Oct-12 10:00N 63°03' E 007°42'2 4.4
2017-Oct-12 09:30N 63°05' E 007°41'4 8.5
2017-Oct-12 09:00N 63°09' E 007°45'4 8.9
2017-Oct-12 08:30N 63°12' E 007°53'4 8.9
2017-Oct-12 08:00N 63°15' E 008°01'4 8.6
2017-Oct-12 07:30N 63°17' E 008°09'4 8.3
2017-Oct-12 07:00N 63°19' E 008°16'4 7.5
2017-Oct-12 06:29N 63°23' E 008°15'1 2.2
2017-Oct-12 06:00N 63°24' E 008°13'0 0.3
2017-Oct-12 05:29N 63°24' E 008°13'4 8.9
2017-Oct-12 04:59N 63°24' E 008°23'4 8.8
2017-Oct-12 04:30N 63°25' E 008°32'4 8.8
2017-Oct-12 04:00N 63°26' E 008°42'4 8.7
2017-Oct-12 03:30N 63°27' E 008°51'4 8.8
2017-Oct-12 03:00N 63°28' E 009°01'4 8.3
2017-Oct-12 02:30N 63°26' E 009°08'3 6.1
2017-Oct-12 02:00N 63°23' E 009°10'0 0.0
2017-Oct-12 01:30N 63°23' E 009°10'3 5.5
2017-Oct-12 01:00N 63°25' E 009°08'4 8.7
2017-Oct-12 00:30N 63°30' E 009°05'4 7.3
2017-Oct-12 00:00N 63°32' E 009°12'3 6.8
2017-Oct-11 23:30N 63°35' E 009°14'3 6.7
2017-Oct-11 23:00N 63°38' E 009°11'0 0.0
2017-Oct-11 22:30N 63°38' E 009°11'0 0.1
2017-Oct-11 22:00N 63°38' E 009°11'0 0.1
2017-Oct-11 21:30N 63°38' E 009°11'0 0.0
2017-Oct-11 21:00N 63°38' E 009°11'0 0.1
2017-Oct-11 20:30N 63°38' E 009°11'0 0.0
2017-Oct-11 20:00N 63°38' E 009°11'0 0.2
2017-Oct-11 19:30N 63°38' E 009°11'0 0.0
2017-Oct-11 19:00N 63°38' E 009°11'0 0.3
2017-Oct-11 18:30N 63°38' E 009°11'0 0.0
2017-Oct-11 18:00N 63°38' E 009°11'0 0.0
2017-Oct-11 17:30N 63°38' E 009°11'0 0.0
2017-Oct-11 17:00N 63°38' E 009°11'24 1.4
2017-Oct-11 00:00N 63°53' E 009°52'0 0.0
2017-Oct-10 23:30N 63°53' E 009°52'0 0.0
2017-Oct-10 23:00N 63°53' E 009°52'0 0.0
2017-Oct-10 22:30N 63°53' E 009°52'0 0.0
2017-Oct-10 22:00N 63°53' E 009°52'0 0.0
2017-Oct-10 21:30N 63°53' E 009°52'0 0.0
2017-Oct-10 21:00N 63°53' E 009°52'0 0.0
2017-Oct-10 20:30N 63°53' E 009°52'0 0.0
2017-Oct-10 20:00N 63°53' E 009°52'0 0.0
2017-Oct-10 19:30N 63°53' E 009°52'0 0.0
2017-Oct-10 19:00N 63°53' E 009°52'0 0.0
2017-Oct-10 18:30N 63°53' E 009°52'0 0.0
2017-Oct-10 18:00N 63°53' E 009°52'0 0.0
2017-Oct-10 17:30N 63°53' E 009°52'0 0.5
2017-Oct-10 17:00N 63°53' E 009°53'2 3.1
2017-Oct-10 16:30N 63°53' E 009°49'4 8.8
2017-Oct-10 16:00N 63°51' E 009°40'5 9.1
2017-Oct-10 15:30N 63°48' E 009°34'5 9.4
2017-Oct-10 15:00N 63°43' E 009°32'10 9.7
2017-Oct-10 14:00N 63°34' E 009°23'510.1
2017-Oct-10 13:30N 63°32' E 009°13'510.3
2017-Oct-10 13:00N 63°29' E 009°03'5 9.8
2017-Oct-10 12:30N 63°27' E 008°52'5 9.5
2017-Oct-10 12:00N 63°26' E 008°42'5 9.6
2017-Oct-10 11:30N 63°24' E 008°33'5 9.8
2017-Oct-10 11:00N 63°21' E 008°23'5 9.8
2017-Oct-10 10:30N 63°18' E 008°15'  

Dump ship's entire track history